sensor_id;sensor_type;location;lat;lon;timestamp;P1;durP1;ratioP1;P2;durP2;ratioP2
11709;SDS011;5911;51.036;6.972;2022-11-25T00:01:19;11.30;;;4.30;;
11709;SDS011;5911;51.036;6.972;2022-11-25T00:03:48;11.40;;;4.37;;
11709;SDS011;5911;51.036;6.972;2022-11-25T00:06:17;17.50;;;4.77;;
11709;SDS011;5911;51.036;6.972;2022-11-25T00:08:46;11.57;;;4.37;;
11709;SDS011;5911;51.036;6.972;2022-11-25T00:11:16;11.87;;;4.90;;
11709;SDS011;5911;51.036;6.972;2022-11-25T00:13:45;15.13;;;4.87;;
11709;SDS011;5911;51.036;6.972;2022-11-25T00:16:15;15.47;;;4.10;;
11709;SDS011;5911;51.036;6.972;2022-11-25T00:18:46;17.00;;;4.50;;
11709;SDS011;5911;51.036;6.972;2022-11-25T00:21:15;14.23;;;4.20;;
11709;SDS011;5911;51.036;6.972;2022-11-25T00:23:49;10.90;;;4.10;;
11709;SDS011;5911;51.036;6.972;2022-11-25T00:26:19;11.40;;;3.77;;
11709;SDS011;5911;51.036;6.972;2022-11-25T00:28:48;13.67;;;4.30;;
11709;SDS011;5911;51.036;6.972;2022-11-25T00:31:17;15.97;;;4.13;;
11709;SDS011;5911;51.036;6.972;2022-11-25T00:33:49;9.83;;;3.63;;
11709;SDS011;5911;51.036;6.972;2022-11-25T00:36:19;10.83;;;3.30;;
11709;SDS011;5911;51.036;6.972;2022-11-25T00:38:51;8.60;;;3.30;;
11709;SDS011;5911;51.036;6.972;2022-11-25T00:41:20;11.93;;;3.30;;
11709;SDS011;5911;51.036;6.972;2022-11-25T00:44:07;11.90;;;3.63;;
11709;SDS011;5911;51.036;6.972;2022-11-25T00:46:53;11.27;;;3.00;;
11709;SDS011;5911;51.036;6.972;2022-11-25T00:49:22;9.63;;;2.87;;
11709;SDS011;5911;51.036;6.972;2022-11-25T00:51:50;9.17;;;3.10;;
11709;SDS011;5911;51.036;6.972;2022-11-25T00:54:18;9.63;;;3.13;;
11709;SDS011;5911;51.036;6.972;2022-11-25T00:56:47;8.43;;;3.20;;
11709;SDS011;5911;51.036;6.972;2022-11-25T00:59:16;13.73;;;3.77;;
11709;SDS011;5911;51.036;6.972;2022-11-25T01:01:43;8.20;;;4.03;;
11709;SDS011;5911;51.036;6.972;2022-11-25T01:04:12;10.33;;;3.83;;
11709;SDS011;5911;51.036;6.972;2022-11-25T01:06:41;13.47;;;4.83;;
11709;SDS011;5911;51.036;6.972;2022-11-25T01:09:09;12.27;;;4.00;;
11709;SDS011;5911;51.036;6.972;2022-11-25T01:11:39;12.67;;;4.13;;
11709;SDS011;5911;51.036;6.972;2022-11-25T01:14:07;14.97;;;5.00;;
11709;SDS011;5911;51.036;6.972;2022-11-25T01:16:35;16.27;;;5.03;;
11709;SDS011;5911;51.036;6.972;2022-11-25T01:19:05;13.63;;;4.63;;
11709;SDS011;5911;51.036;6.972;2022-11-25T01:21:34;11.50;;;4.40;;
11709;SDS011;5911;51.036;6.972;2022-11-25T01:24:03;14.43;;;5.03;;
11709;SDS011;5911;51.036;6.972;2022-11-25T01:26:32;16.07;;;4.93;;
11709;SDS011;5911;51.036;6.972;2022-11-25T01:29:02;12.73;;;4.50;;
11709;SDS011;5911;51.036;6.972;2022-11-25T01:31:33;12.13;;;5.10;;
11709;SDS011;5911;51.036;6.972;2022-11-25T01:34:02;14.10;;;5.30;;
11709;SDS011;5911;51.036;6.972;2022-11-25T01:36:33;13.50;;;5.10;;
11709;SDS011;5911;51.036;6.972;2022-11-25T01:39:03;12.50;;;4.53;;
11709;SDS011;5911;51.036;6.972;2022-11-25T01:41:32;14.17;;;4.17;;
11709;SDS011;5911;51.036;6.972;2022-11-25T01:44:08;12.43;;;3.90;;
11709;SDS011;5911;51.036;6.972;2022-11-25T01:46:42;12.87;;;4.40;;
11709;SDS011;5911;51.036;6.972;2022-11-25T01:49:14;13.17;;;4.10;;
11709;SDS011;5911;51.036;6.972;2022-11-25T01:51:46;10.93;;;4.03;;
11709;SDS011;5911;51.036;6.972;2022-11-25T01:54:22;11.63;;;4.30;;
11709;SDS011;5911;51.036;6.972;2022-11-25T01:56:54;13.03;;;4.73;;
11709;SDS011;5911;51.036;6.972;2022-11-25T01:59:25;11.90;;;4.10;;
11709;SDS011;5911;51.036;6.972;2022-11-25T02:01:55;11.63;;;4.20;;
11709;SDS011;5911;51.036;6.972;2022-11-25T02:04:26;10.37;;;4.50;;
11709;SDS011;5911;51.036;6.972;2022-11-25T02:06:59;12.00;;;3.93;;
11709;SDS011;5911;51.036;6.972;2022-11-25T02:09:33;13.17;;;4.53;;
11709;SDS011;5911;51.036;6.972;2022-11-25T02:12:01;12.67;;;4.00;;
11709;SDS011;5911;51.036;6.972;2022-11-25T02:14:29;10.53;;;4.40;;
11709;SDS011;5911;51.036;6.972;2022-11-25T02:16:58;14.00;;;4.57;;
11709;SDS011;5911;51.036;6.972;2022-11-25T02:19:30;13.37;;;4.80;;
11709;SDS011;5911;51.036;6.972;2022-11-25T02:22:06;12.40;;;4.50;;
11709;SDS011;5911;51.036;6.972;2022-11-25T02:24:40;17.23;;;4.67;;
11709;SDS011;5911;51.036;6.972;2022-11-25T02:27:13;9.40;;;4.30;;
11709;SDS011;5911;51.036;6.972;2022-11-25T02:29:41;17.00;;;4.97;;
11709;SDS011;5911;51.036;6.972;2022-11-25T02:32:10;13.97;;;4.33;;
11709;SDS011;5911;51.036;6.972;2022-11-25T02:34:45;9.63;;;4.17;;
11709;SDS011;5911;51.036;6.972;2022-11-25T02:37:13;14.60;;;4.90;;
11709;SDS011;5911;51.036;6.972;2022-11-25T02:39:43;12.37;;;5.03;;
11709;SDS011;5911;51.036;6.972;2022-11-25T02:42:15;15.50;;;4.63;;
11709;SDS011;5911;51.036;6.972;2022-11-25T02:44:46;13.90;;;4.70;;
11709;SDS011;5911;51.036;6.972;2022-11-25T02:47:15;12.23;;;4.67;;
11709;SDS011;5911;51.036;6.972;2022-11-25T02:49:43;14.57;;;4.47;;
11709;SDS011;5911;51.036;6.972;2022-11-25T02:52:11;12.67;;;4.10;;
11709;SDS011;5911;51.036;6.972;2022-11-25T02:54:40;12.40;;;3.77;;
11709;SDS011;5911;51.036;6.972;2022-11-25T02:57:08;10.43;;;3.73;;
11709;SDS011;5911;51.036;6.972;2022-11-25T02:59:37;14.53;;;3.97;;
11709;SDS011;5911;51.036;6.972;2022-11-25T03:02:05;13.37;;;3.93;;
11709;SDS011;5911;51.036;6.972;2022-11-25T03:04:32;18.50;;;5.03;;
11709;SDS011;5911;51.036;6.972;2022-11-25T03:07:01;11.37;;;5.10;;
11709;SDS011;5911;51.036;6.972;2022-11-25T03:09:29;16.33;;;5.60;;
11709;SDS011;5911;51.036;6.972;2022-11-25T03:11:57;15.13;;;5.20;;
11709;SDS011;5911;51.036;6.972;2022-11-25T03:14:43;12.73;;;4.87;;
11709;SDS011;5911;51.036;6.972;2022-11-25T03:17:11;12.47;;;5.03;;
11709;SDS011;5911;51.036;6.972;2022-11-25T03:19:39;14.63;;;5.20;;
11709;SDS011;5911;51.036;6.972;2022-11-25T03:22:07;12.20;;;4.40;;
11709;SDS011;5911;51.036;6.972;2022-11-25T03:24:35;19.10;;;5.53;;
11709;SDS011;5911;51.036;6.972;2022-11-25T03:27:03;12.40;;;4.67;;
11709;SDS011;5911;51.036;6.972;2022-11-25T03:29:31;12.03;;;4.40;;
11709;SDS011;5911;51.036;6.972;2022-11-25T03:32:00;13.10;;;4.23;;
11709;SDS011;5911;51.036;6.972;2022-11-25T03:34:35;7.93;;;3.77;;
11709;SDS011;5911;51.036;6.972;2022-11-25T03:37:03;14.60;;;4.30;;
11709;SDS011;5911;51.036;6.972;2022-11-25T03:39:31;11.40;;;3.73;;
11709;SDS011;5911;51.036;6.972;2022-11-25T03:41:59;11.17;;;3.70;;
11709;SDS011;5911;51.036;6.972;2022-11-25T03:44:27;11.37;;;3.77;;
11709;SDS011;5911;51.036;6.972;2022-11-25T03:46:55;12.10;;;4.23;;
11709;SDS011;5911;51.036;6.972;2022-11-25T03:49:24;15.37;;;4.90;;
11709;SDS011;5911;51.036;6.972;2022-11-25T03:51:53;14.07;;;4.10;;
11709;SDS011;5911;51.036;6.972;2022-11-25T03:54:21;9.87;;;4.13;;
11709;SDS011;5911;51.036;6.972;2022-11-25T03:57:09;12.63;;;4.47;;
11709;SDS011;5911;51.036;6.972;2022-11-25T03:59:37;11.73;;;4.13;;
11709;SDS011;5911;51.036;6.972;2022-11-25T04:02:05;12.87;;;3.87;;
11709;SDS011;5911;51.036;6.972;2022-11-25T04:04:35;13.47;;;4.37;;
11709;SDS011;5911;51.036;6.972;2022-11-25T04:07:03;9.83;;;3.40;;
11709;SDS011;5911;51.036;6.972;2022-11-25T04:09:31;10.40;;;3.27;;
11709;SDS011;5911;51.036;6.972;2022-11-25T04:12:02;11.40;;;3.50;;
11709;SDS011;5911;51.036;6.972;2022-11-25T04:14:52;11.33;;;3.83;;
11709;SDS011;5911;51.036;6.972;2022-11-25T04:17:21;11.57;;;3.90;;
11709;SDS011;5911;51.036;6.972;2022-11-25T04:19:51;11.57;;;3.83;;
11709;SDS011;5911;51.036;6.972;2022-11-25T04:22:19;13.33;;;3.77;;
11709;SDS011;5911;51.036;6.972;2022-11-25T04:24:48;11.33;;;4.47;;
11709;SDS011;5911;51.036;6.972;2022-11-25T04:27:20;16.70;;;4.10;;
11709;SDS011;5911;51.036;6.972;2022-11-25T04:29:49;15.03;;;4.37;;
11709;SDS011;5911;51.036;6.972;2022-11-25T04:32:19;11.30;;;4.77;;
11709;SDS011;5911;51.036;6.972;2022-11-25T04:34:47;10.23;;;4.10;;
11709;SDS011;5911;51.036;6.972;2022-11-25T04:37:17;9.80;;;3.77;;
11709;SDS011;5911;51.036;6.972;2022-11-25T04:39:46;9.90;;;3.20;;
11709;SDS011;5911;51.036;6.972;2022-11-25T04:42:16;9.10;;;3.40;;
11709;SDS011;5911;51.036;6.972;2022-11-25T04:45:04;9.87;;;3.47;;
11709;SDS011;5911;51.036;6.972;2022-11-25T04:47:52;14.50;;;3.87;;
11709;SDS011;5911;51.036;6.972;2022-11-25T04:50:22;9.53;;;3.37;;
11709;SDS011;5911;51.036;6.972;2022-11-25T04:53:02;13.20;;;4.17;;
11709;SDS011;5911;51.036;6.972;2022-11-25T04:55:30;11.33;;;4.50;;
11709;SDS011;5911;51.036;6.972;2022-11-25T04:58:02;12.53;;;4.47;;
11709;SDS011;5911;51.036;6.972;2022-11-25T05:00:32;10.70;;;3.97;;
11709;SDS011;5911;51.036;6.972;2022-11-25T05:03:00;12.03;;;3.90;;
11709;SDS011;5911;51.036;6.972;2022-11-25T05:05:29;13.07;;;4.27;;
11709;SDS011;5911;51.036;6.972;2022-11-25T05:07:57;11.30;;;3.60;;
11709;SDS011;5911;51.036;6.972;2022-11-25T05:10:27;16.93;;;4.60;;
11709;SDS011;5911;51.036;6.972;2022-11-25T05:12:57;11.30;;;3.40;;
11709;SDS011;5911;51.036;6.972;2022-11-25T05:15:25;10.13;;;3.90;;
11709;SDS011;5911;51.036;6.972;2022-11-25T05:17:53;13.80;;;4.93;;
11709;SDS011;5911;51.036;6.972;2022-11-25T05:20:37;12.53;;;4.40;;
11709;SDS011;5911;51.036;6.972;2022-11-25T05:23:06;10.67;;;4.23;;
11709;SDS011;5911;51.036;6.972;2022-11-25T05:25:35;10.27;;;4.00;;
11709;SDS011;5911;51.036;6.972;2022-11-25T05:28:21;13.97;;;4.33;;
11709;SDS011;5911;51.036;6.972;2022-11-25T05:30:53;13.47;;;4.43;;
11709;SDS011;5911;51.036;6.972;2022-11-25T05:33:21;14.70;;;4.57;;
11709;SDS011;5911;51.036;6.972;2022-11-25T05:35:53;13.40;;;4.60;;
11709;SDS011;5911;51.036;6.972;2022-11-25T05:38:26;11.67;;;3.83;;
11709;SDS011;5911;51.036;6.972;2022-11-25T05:41:00;10.33;;;4.20;;
11709;SDS011;5911;51.036;6.972;2022-11-25T05:43:29;9.43;;;3.90;;
11709;SDS011;5911;51.036;6.972;2022-11-25T05:45:58;12.27;;;5.00;;
11709;SDS011;5911;51.036;6.972;2022-11-25T05:48:26;14.73;;;4.93;;
11709;SDS011;5911;51.036;6.972;2022-11-25T05:50:54;10.63;;;4.67;;
11709;SDS011;5911;51.036;6.972;2022-11-25T05:53:22;14.00;;;4.63;;
11709;SDS011;5911;51.036;6.972;2022-11-25T05:55:52;12.10;;;4.67;;
11709;SDS011;5911;51.036;6.972;2022-11-25T05:58:41;10.23;;;4.47;;
11709;SDS011;5911;51.036;6.972;2022-11-25T06:01:10;12.23;;;3.87;;
11709;SDS011;5911;51.036;6.972;2022-11-25T06:03:40;13.10;;;3.90;;
11709;SDS011;5911;51.036;6.972;2022-11-25T06:06:09;12.77;;;4.53;;
11709;SDS011;5911;51.036;6.972;2022-11-25T06:08:38;11.90;;;5.17;;
11709;SDS011;5911;51.036;6.972;2022-11-25T06:11:07;12.17;;;4.63;;
11709;SDS011;5911;51.036;6.972;2022-11-25T06:13:37;10.43;;;4.23;;
11709;SDS011;5911;51.036;6.972;2022-11-25T06:16:07;12.40;;;5.33;;
11709;SDS011;5911;51.036;6.972;2022-11-25T06:18:37;11.33;;;3.60;;
11709;SDS011;5911;51.036;6.972;2022-11-25T06:21:07;8.90;;;4.07;;
11709;SDS011;5911;51.036;6.972;2022-11-25T06:23:36;10.97;;;4.47;;
11709;SDS011;5911;51.036;6.972;2022-11-25T06:26:05;9.70;;;4.50;;
11709;SDS011;5911;51.036;6.972;2022-11-25T06:28:34;13.50;;;5.17;;
11709;SDS011;5911;51.036;6.972;2022-11-25T06:31:03;15.87;;;5.30;;
11709;SDS011;5911;51.036;6.972;2022-11-25T06:33:39;11.27;;;4.90;;
11709;SDS011;5911;51.036;6.972;2022-11-25T06:36:10;11.43;;;4.80;;
11709;SDS011;5911;51.036;6.972;2022-11-25T06:38:42;16.80;;;4.97;;
11709;SDS011;5911;51.036;6.972;2022-11-25T06:41:10;9.23;;;4.40;;
11709;SDS011;5911;51.036;6.972;2022-11-25T06:43:38;9.83;;;4.33;;
11709;SDS011;5911;51.036;6.972;2022-11-25T06:46:07;9.20;;;4.20;;
11709;SDS011;5911;51.036;6.972;2022-11-25T06:48:36;11.27;;;4.67;;
11709;SDS011;5911;51.036;6.972;2022-11-25T06:51:06;13.77;;;5.07;;
11709;SDS011;5911;51.036;6.972;2022-11-25T06:53:36;9.27;;;5.17;;
11709;SDS011;5911;51.036;6.972;2022-11-25T06:56:06;13.80;;;4.87;;
11709;SDS011;5911;51.036;6.972;2022-11-25T06:58:35;12.53;;;5.23;;
11709;SDS011;5911;51.036;6.972;2022-11-25T07:01:04;10.37;;;4.87;;
11709;SDS011;5911;51.036;6.972;2022-11-25T07:03:34;14.10;;;5.80;;
11709;SDS011;5911;51.036;6.972;2022-11-25T07:06:02;10.77;;;5.00;;
11709;SDS011;5911;51.036;6.972;2022-11-25T07:08:31;11.57;;;5.53;;
11709;SDS011;5911;51.036;6.972;2022-11-25T07:11:03;15.23;;;5.77;;
11709;SDS011;5911;51.036;6.972;2022-11-25T07:13:32;11.63;;;4.67;;
11709;SDS011;5911;51.036;6.972;2022-11-25T07:16:01;10.37;;;5.50;;
11709;SDS011;5911;51.036;6.972;2022-11-25T07:18:30;12.80;;;5.83;;
11709;SDS011;5911;51.036;6.972;2022-11-25T07:21:02;17.37;;;5.40;;
11709;SDS011;5911;51.036;6.972;2022-11-25T07:23:32;11.60;;;5.27;;
11709;SDS011;5911;51.036;6.972;2022-11-25T07:26:01;13.10;;;4.80;;
11709;SDS011;5911;51.036;6.972;2022-11-25T07:28:30;14.33;;;5.53;;
11709;SDS011;5911;51.036;6.972;2022-11-25T07:31:03;15.63;;;5.07;;
11709;SDS011;5911;51.036;6.972;2022-11-25T07:33:50;10.47;;;4.70;;
11709;SDS011;5911;51.036;6.972;2022-11-25T07:36:19;13.13;;;4.63;;
11709;SDS011;5911;51.036;6.972;2022-11-25T07:38:48;15.27;;;5.43;;
11709;SDS011;5911;51.036;6.972;2022-11-25T07:41:17;12.63;;;4.97;;
11709;SDS011;5911;51.036;6.972;2022-11-25T07:43:46;12.67;;;4.33;;
11709;SDS011;5911;51.036;6.972;2022-11-25T07:46:20;10.73;;;4.93;;
11709;SDS011;5911;51.036;6.972;2022-11-25T07:48:53;8.77;;;4.40;;
11709;SDS011;5911;51.036;6.972;2022-11-25T07:51:23;9.70;;;4.37;;
11709;SDS011;5911;51.036;6.972;2022-11-25T07:53:54;7.60;;;4.23;;
11709;SDS011;5911;51.036;6.972;2022-11-25T07:56:23;11.00;;;4.67;;
11709;SDS011;5911;51.036;6.972;2022-11-25T07:58:51;10.03;;;4.90;;
11709;SDS011;5911;51.036;6.972;2022-11-25T08:01:19;8.97;;;4.33;;
11709;SDS011;5911;51.036;6.972;2022-11-25T08:03:47;14.07;;;5.23;;
11709;SDS011;5911;51.036;6.972;2022-11-25T08:06:17;11.77;;;4.50;;
11709;SDS011;5911;51.036;6.972;2022-11-25T08:08:46;7.37;;;4.00;;
11709;SDS011;5911;51.036;6.972;2022-11-25T08:11:16;9.07;;;4.73;;
11709;SDS011;5911;51.036;6.972;2022-11-25T08:13:46;10.77;;;5.40;;
11709;SDS011;5911;51.036;6.972;2022-11-25T08:16:15;10.27;;;4.80;;
11709;SDS011;5911;51.036;6.972;2022-11-25T08:18:44;7.70;;;4.30;;
11709;SDS011;5911;51.036;6.972;2022-11-25T08:21:12;9.73;;;4.60;;
11709;SDS011;5911;51.036;6.972;2022-11-25T08:23:41;9.93;;;4.53;;
11709;SDS011;5911;51.036;6.972;2022-11-25T08:26:10;11.33;;;5.40;;
11709;SDS011;5911;51.036;6.972;2022-11-25T08:28:41;11.00;;;5.40;;
11709;SDS011;5911;51.036;6.972;2022-11-25T08:31:10;11.63;;;5.60;;
11709;SDS011;5911;51.036;6.972;2022-11-25T08:33:40;10.30;;;5.27;;
11709;SDS011;5911;51.036;6.972;2022-11-25T08:36:08;8.93;;;5.57;;
11709;SDS011;5911;51.036;6.972;2022-11-25T08:38:38;12.37;;;5.57;;
11709;SDS011;5911;51.036;6.972;2022-11-25T08:41:08;9.77;;;4.97;;
11709;SDS011;5911;51.036;6.972;2022-11-25T08:43:37;8.33;;;4.93;;
11709;SDS011;5911;51.036;6.972;2022-11-25T08:46:10;10.67;;;5.80;;
11709;SDS011;5911;51.036;6.972;2022-11-25T08:48:39;10.37;;;4.70;;
11709;SDS011;5911;51.036;6.972;2022-11-25T08:51:10;11.67;;;5.43;;
11709;SDS011;5911;51.036;6.972;2022-11-25T08:53:40;10.77;;;6.30;;
11709;SDS011;5911;51.036;6.972;2022-11-25T08:56:08;10.23;;;5.57;;
11709;SDS011;5911;51.036;6.972;2022-11-25T08:58:36;10.23;;;4.97;;
11709;SDS011;5911;51.036;6.972;2022-11-25T09:01:05;13.37;;;5.40;;
11709;SDS011;5911;51.036;6.972;2022-11-25T09:03:36;15.70;;;5.63;;
11709;SDS011;5911;51.036;6.972;2022-11-25T09:06:05;15.27;;;6.13;;
11709;SDS011;5911;51.036;6.972;2022-11-25T09:08:34;14.23;;;5.10;;
11709;SDS011;5911;51.036;6.972;2022-11-25T09:11:04;12.73;;;5.90;;
11709;SDS011;5911;51.036;6.972;2022-11-25T09:13:32;12.27;;;5.43;;
11709;SDS011;5911;51.036;6.972;2022-11-25T09:16:01;11.97;;;5.80;;
11709;SDS011;5911;51.036;6.972;2022-11-25T09:18:29;12.67;;;5.87;;
11709;SDS011;5911;51.036;6.972;2022-11-25T09:20:59;12.67;;;6.00;;
11709;SDS011;5911;51.036;6.972;2022-11-25T09:23:34;10.93;;;5.73;;
11709;SDS011;5911;51.036;6.972;2022-11-25T09:26:02;12.80;;;6.10;;
11709;SDS011;5911;51.036;6.972;2022-11-25T09:28:30;10.50;;;4.50;;
11709;SDS011;5911;51.036;6.972;2022-11-25T09:30:58;7.60;;;4.60;;
11709;SDS011;5911;51.036;6.972;2022-11-25T09:33:27;7.30;;;4.33;;
11709;SDS011;5911;51.036;6.972;2022-11-25T09:35:58;8.80;;;4.47;;
11709;SDS011;5911;51.036;6.972;2022-11-25T09:38:27;10.20;;;4.30;;
11709;SDS011;5911;51.036;6.972;2022-11-25T09:44:01;10.27;;;4.33;;
11709;SDS011;5911;51.036;6.972;2022-11-25T09:46:55;8.23;;;4.17;;
11709;SDS011;5911;51.036;6.972;2022-11-25T09:49:35;10.93;;;3.60;;
11709;SDS011;5911;51.036;6.972;2022-11-25T09:52:15;7.17;;;3.87;;
11709;SDS011;5911;51.036;6.972;2022-11-25T09:54:52;10.00;;;4.13;;
11709;SDS011;5911;51.036;6.972;2022-11-25T09:57:26;9.20;;;4.47;;
11709;SDS011;5911;51.036;6.972;2022-11-25T10:00:04;8.73;;;4.40;;
11709;SDS011;5911;51.036;6.972;2022-11-25T10:02:38;8.47;;;3.93;;
11709;SDS011;5911;51.036;6.972;2022-11-25T10:05:12;5.73;;;3.67;;
11709;SDS011;5911;51.036;6.972;2022-11-25T10:07:51;7.37;;;4.00;;
11709;SDS011;5911;51.036;6.972;2022-11-25T10:10:21;10.03;;;4.43;;
11709;SDS011;5911;51.036;6.972;2022-11-25T10:12:52;6.73;;;3.83;;
11709;SDS011;5911;51.036;6.972;2022-11-25T10:15:24;6.97;;;3.80;;
11709;SDS011;5911;51.036;6.972;2022-11-25T10:17:54;10.27;;;4.20;;
11709;SDS011;5911;51.036;6.972;2022-11-25T10:20:27;9.77;;;4.17;;
11709;SDS011;5911;51.036;6.972;2022-11-25T10:23:00;10.23;;;4.13;;
11709;SDS011;5911;51.036;6.972;2022-11-25T10:25:30;6.33;;;3.53;;
11709;SDS011;5911;51.036;6.972;2022-11-25T10:28:03;8.40;;;3.60;;
11709;SDS011;5911;51.036;6.972;2022-11-25T10:30:43;6.13;;;3.53;;
11709;SDS011;5911;51.036;6.972;2022-11-25T10:33:17;6.70;;;3.40;;
11709;SDS011;5911;51.036;6.972;2022-11-25T10:35:48;10.60;;;3.77;;
11709;SDS011;5911;51.036;6.972;2022-11-25T10:38:23;7.47;;;2.67;;
11709;SDS011;5911;51.036;6.972;2022-11-25T10:40:55;5.20;;;2.10;;
11709;SDS011;5911;51.036;6.972;2022-11-25T10:43:25;5.60;;;2.40;;
11709;SDS011;5911;51.036;6.972;2022-11-25T10:45:58;10.33;;;3.07;;
11709;SDS011;5911;51.036;6.972;2022-11-25T10:48:43;9.23;;;2.40;;
11709;SDS011;5911;51.036;6.972;2022-11-25T10:51:28;6.30;;;2.60;;
11709;SDS011;5911;51.036;6.972;2022-11-25T10:54:17;7.20;;;2.83;;
11709;SDS011;5911;51.036;6.972;2022-11-25T10:56:53;7.70;;;2.30;;
11709;SDS011;5911;51.036;6.972;2022-11-25T10:59:24;10.63;;;2.37;;
11709;SDS011;5911;51.036;6.972;2022-11-25T11:02:04;6.50;;;2.20;;
11709;SDS011;5911;51.036;6.972;2022-11-25T11:04:51;8.17;;;2.43;;
11709;SDS011;5911;51.036;6.972;2022-11-25T11:07:23;11.37;;;2.90;;
11709;SDS011;5911;51.036;6.972;2022-11-25T11:09:54;8.43;;;2.70;;
11709;SDS011;5911;51.036;6.972;2022-11-25T11:12:49;10.90;;;2.93;;
11709;SDS011;5911;51.036;6.972;2022-11-25T11:15:21;10.60;;;2.57;;
11709;SDS011;5911;51.036;6.972;2022-11-25T11:17:50;11.20;;;2.73;;
11709;SDS011;5911;51.036;6.972;2022-11-25T11:20:20;7.03;;;2.63;;
11709;SDS011;5911;51.036;6.972;2022-11-25T11:22:56;11.30;;;2.77;;
11709;SDS011;5911;51.036;6.972;2022-11-25T11:25:36;8.90;;;3.10;;
11709;SDS011;5911;51.036;6.972;2022-11-25T11:30:52;10.73;;;2.83;;
11709;SDS011;5911;51.036;6.972;2022-11-25T11:33:27;12.53;;;2.53;;
11709;SDS011;5911;51.036;6.972;2022-11-25T11:36:01;14.10;;;3.20;;
11709;SDS011;5911;51.036;6.972;2022-11-25T11:38:43;9.30;;;2.80;;
11709;SDS011;5911;51.036;6.972;2022-11-25T11:41:17;12.93;;;3.17;;
11709;SDS011;5911;51.036;6.972;2022-11-25T11:44:05;5.63;;;2.57;;
11709;SDS011;5911;51.036;6.972;2022-11-25T11:46:46;12.70;;;2.73;;
11709;SDS011;5911;51.036;6.972;2022-11-25T11:52:18;10.17;;;2.70;;
11709;SDS011;5911;51.036;6.972;2022-11-25T11:54:57;9.40;;;2.80;;
11709;SDS011;5911;51.036;6.972;2022-11-25T11:57:32;17.63;;;3.50;;
11709;SDS011;5911;51.036;6.972;2022-11-25T12:00:07;11.90;;;3.50;;
11709;SDS011;5911;51.036;6.972;2022-11-25T12:02:48;14.70;;;3.53;;
11709;SDS011;5911;51.036;6.972;2022-11-25T12:05:23;8.70;;;3.00;;
11709;SDS011;5911;51.036;6.972;2022-11-25T12:07:58;9.20;;;3.10;;
11709;SDS011;5911;51.036;6.972;2022-11-25T12:10:32;11.67;;;3.60;;
11709;SDS011;5911;51.036;6.972;2022-11-25T12:13:07;8.40;;;2.70;;
11709;SDS011;5911;51.036;6.972;2022-11-25T12:15:43;11.60;;;3.03;;
11709;SDS011;5911;51.036;6.972;2022-11-25T12:18:18;11.67;;;2.50;;
11709;SDS011;5911;51.036;6.972;2022-11-25T12:20:57;13.03;;;3.53;;
11709;SDS011;5911;51.036;6.972;2022-11-25T12:23:31;10.80;;;3.47;;
11709;SDS011;5911;51.036;6.972;2022-11-25T12:26:10;9.47;;;2.57;;
11709;SDS011;5911;51.036;6.972;2022-11-25T12:28:44;14.27;;;3.27;;
11709;SDS011;5911;51.036;6.972;2022-11-25T12:31:19;8.70;;;3.40;;
11709;SDS011;5911;51.036;6.972;2022-11-25T12:33:52;14.03;;;3.13;;
11709;SDS011;5911;51.036;6.972;2022-11-25T12:36:30;13.77;;;3.47;;
11709;SDS011;5911;51.036;6.972;2022-11-25T12:39:02;13.40;;;3.10;;
11709;SDS011;5911;51.036;6.972;2022-11-25T12:41:34;12.47;;;3.60;;
11709;SDS011;5911;51.036;6.972;2022-11-25T12:44:11;13.53;;;2.90;;
11709;SDS011;5911;51.036;6.972;2022-11-25T12:46:43;14.60;;;3.20;;
11709;SDS011;5911;51.036;6.972;2022-11-25T12:49:16;12.30;;;3.57;;
11709;SDS011;5911;51.036;6.972;2022-11-25T12:57:39;12.70;;;2.97;;
11709;SDS011;5911;51.036;6.972;2022-11-25T13:00:34;13.97;;;3.57;;
11709;SDS011;5911;51.036;6.972;2022-11-25T13:03:21;10.50;;;2.50;;
11709;SDS011;5911;51.036;6.972;2022-11-25T13:06:20;12.80;;;3.30;;
11709;SDS011;5911;51.036;6.972;2022-11-25T13:08:58;10.73;;;3.13;;
11709;SDS011;5911;51.036;6.972;2022-11-25T13:11:44;11.47;;;3.47;;
11709;SDS011;5911;51.036;6.972;2022-11-25T13:14:40;8.43;;;2.53;;
11709;SDS011;5911;51.036;6.972;2022-11-25T13:17:31;10.67;;;2.73;;
11709;SDS011;5911;51.036;6.972;2022-11-25T13:23:22;14.57;;;3.87;;
11709;SDS011;5911;51.036;6.972;2022-11-25T13:38:05;12.03;;;3.00;;
11709;SDS011;5911;51.036;6.972;2022-11-25T13:40:37;8.70;;;2.40;;
11709;SDS011;5911;51.036;6.972;2022-11-25T13:43:18;6.20;;;2.70;;
11709;SDS011;5911;51.036;6.972;2022-11-25T13:45:48;5.47;;;2.27;;
11709;SDS011;5911;51.036;6.972;2022-11-25T13:48:17;10.30;;;3.33;;
11709;SDS011;5911;51.036;6.972;2022-11-25T13:50:49;11.87;;;2.93;;
11709;SDS011;5911;51.036;6.972;2022-11-25T13:53:36;9.50;;;2.73;;
11709;SDS011;5911;51.036;6.972;2022-11-25T13:56:13;9.13;;;3.60;;
11709;SDS011;5911;51.036;6.972;2022-11-25T14:01:50;11.90;;;2.60;;
11709;SDS011;5911;51.036;6.972;2022-11-25T14:04:22;7.60;;;2.47;;
11709;SDS011;5911;51.036;6.972;2022-11-25T14:07:10;8.53;;;2.80;;
11709;SDS011;5911;51.036;6.972;2022-11-25T14:09:55;10.40;;;2.70;;
11709;SDS011;5911;51.036;6.972;2022-11-25T14:12:40;7.37;;;2.50;;
11709;SDS011;5911;51.036;6.972;2022-11-25T14:15:28;7.17;;;2.20;;
11709;SDS011;5911;51.036;6.972;2022-11-25T14:21:36;7.33;;;2.47;;
11709;SDS011;5911;51.036;6.972;2022-11-25T14:24:18;6.00;;;2.53;;
11709;SDS011;5911;51.036;6.972;2022-11-25T14:26:56;6.57;;;2.60;;
11709;SDS011;5911;51.036;6.972;2022-11-25T14:29:27;8.47;;;2.40;;
11709;SDS011;5911;51.036;6.972;2022-11-25T14:32:03;5.83;;;2.33;;
11709;SDS011;5911;51.036;6.972;2022-11-25T14:34:35;4.97;;;2.20;;
11709;SDS011;5911;51.036;6.972;2022-11-25T14:37:09;9.63;;;2.47;;
11709;SDS011;5911;51.036;6.972;2022-11-25T14:39:45;9.07;;;2.50;;
11709;SDS011;5911;51.036;6.972;2022-11-25T14:42:19;6.87;;;2.43;;
11709;SDS011;5911;51.036;6.972;2022-11-25T14:44:51;8.70;;;2.37;;
11709;SDS011;5911;51.036;6.972;2022-11-25T14:47:21;6.77;;;2.23;;
11709;SDS011;5911;51.036;6.972;2022-11-25T14:49:50;6.13;;;2.30;;
11709;SDS011;5911;51.036;6.972;2022-11-25T14:52:39;6.20;;;1.87;;
11709;SDS011;5911;51.036;6.972;2022-11-25T14:55:11;5.57;;;2.30;;
11709;SDS011;5911;51.036;6.972;2022-11-25T14:57:42;8.40;;;2.63;;
11709;SDS011;5911;51.036;6.972;2022-11-25T15:00:12;6.87;;;2.33;;
11709;SDS011;5911;51.036;6.972;2022-11-25T15:02:50;9.20;;;2.40;;
11709;SDS011;5911;51.036;6.972;2022-11-25T15:05:20;5.63;;;1.90;;
11709;SDS011;5911;51.036;6.972;2022-11-25T15:07:59;9.53;;;2.73;;
11709;SDS011;5911;51.036;6.972;2022-11-25T15:10:35;12.33;;;2.90;;
11709;SDS011;5911;51.036;6.972;2022-11-25T15:13:15;7.73;;;2.70;;
11709;SDS011;5911;51.036;6.972;2022-11-25T15:15:56;10.37;;;2.70;;
11709;SDS011;5911;51.036;6.972;2022-11-25T15:18:30;8.93;;;2.40;;
11709;SDS011;5911;51.036;6.972;2022-11-25T15:21:00;8.93;;;2.80;;
11709;SDS011;5911;51.036;6.972;2022-11-25T15:23:29;7.13;;;2.40;;
11709;SDS011;5911;51.036;6.972;2022-11-25T15:26:02;8.33;;;2.50;;
11709;SDS011;5911;51.036;6.972;2022-11-25T15:28:32;9.00;;;2.50;;
11709;SDS011;5911;51.036;6.972;2022-11-25T15:31:01;6.00;;;2.30;;
11709;SDS011;5911;51.036;6.972;2022-11-25T15:33:35;12.27;;;3.20;;
11709;SDS011;5911;51.036;6.972;2022-11-25T15:36:04;7.27;;;2.60;;
11709;SDS011;5911;51.036;6.972;2022-11-25T15:38:34;8.20;;;3.07;;
11709;SDS011;5911;51.036;6.972;2022-11-25T15:41:05;7.40;;;2.67;;
11709;SDS011;5911;51.036;6.972;2022-11-25T15:43:43;14.73;;;3.80;;
11709;SDS011;5911;51.036;6.972;2022-11-25T15:46:12;9.93;;;3.40;;
11709;SDS011;5911;51.036;6.972;2022-11-25T15:48:42;7.67;;;2.53;;
11709;SDS011;5911;51.036;6.972;2022-11-25T15:51:19;8.73;;;2.87;;
11709;SDS011;5911;51.036;6.972;2022-11-25T15:53:54;7.93;;;2.30;;
11709;SDS011;5911;51.036;6.972;2022-11-25T15:56:27;8.33;;;2.77;;
11709;SDS011;5911;51.036;6.972;2022-11-25T15:58:56;9.57;;;2.80;;
11709;SDS011;5911;51.036;6.972;2022-11-25T16:01:27;7.50;;;2.53;;